createdAt,value
2022-10-23T00:01:36.546Z,9.20
2022-10-23T00:04:11.310Z,9.20
2022-10-23T00:06:38.407Z,9.21
2022-10-23T00:09:10.468Z,9.19
2022-10-23T00:11:37.715Z,9.21
2022-10-23T00:14:06.764Z,9.18
2022-10-23T00:16:35.241Z,9.23
2022-10-23T00:19:02.652Z,9.15
2022-10-23T00:21:30.052Z,9.19
2022-10-23T00:23:57.449Z,9.21
2022-10-23T00:26:24.949Z,9.22
2022-10-23T00:28:54.786Z,9.16
2022-10-23T00:31:23.698Z,9.19
2022-10-23T00:33:52.055Z,9.15
2022-10-23T00:36:22.862Z,9.14
2022-10-23T00:38:51.096Z,9.17
2022-10-23T00:41:24.283Z,9.20
2022-10-23T00:44:20.339Z,9.19
2022-10-23T00:46:47.777Z,9.19
2022-10-23T00:49:16.011Z,9.16
2022-10-23T00:51:57.163Z,9.12
2022-10-23T00:54:27.530Z,9.14
2022-10-23T00:56:58.945Z,9.13
2022-10-23T00:59:26.693Z,9.10
2022-10-23T01:01:53.825Z,9.10
2022-10-23T01:04:22.070Z,9.08
2022-10-23T01:07:14.300Z,9.05
2022-10-23T01:09:47.834Z,8.98
2022-10-23T01:12:25.120Z,9.07
2022-10-23T01:15:10.429Z,9.08
2022-10-23T01:17:46.062Z,9.05
2022-10-23T01:20:40.354Z,9.05
2022-10-23T01:23:39.582Z,9.02
2022-10-23T01:26:18.443Z,9.03
2022-10-23T01:28:52.304Z,9.04
2022-10-23T01:31:29.540Z,8.92
2022-10-23T01:34:00.810Z,8.96
2022-10-23T01:36:30.280Z,9.00
2022-10-23T01:41:58.772Z,9.05
2022-10-23T01:44:36.412Z,9.04
2022-10-23T01:47:07.317Z,9.02
2022-10-23T01:49:36.645Z,8.97
2022-10-23T01:52:08.991Z,9.01
2022-10-23T01:54:41.002Z,9.00
2022-10-23T01:57:14.677Z,9.04
2022-10-23T01:59:56.484Z,9.05
2022-10-23T02:02:26.788Z,9.01
2022-10-23T02:05:06.740Z,9.02
2022-10-23T02:07:35.309Z,9.01
2022-10-23T02:10:07.586Z,8.98
2022-10-23T02:12:50.344Z,8.92
2022-10-23T02:15:38.174Z,8.88
2022-10-23T02:18:22.748Z,8.86
2022-10-23T02:21:00.937Z,8.83
2022-10-23T02:23:55.335Z,8.80
2022-10-23T02:26:33.625Z,8.82
2022-10-23T02:29:21.754Z,8.79
2022-10-23T02:31:48.784Z,8.84
2022-10-23T02:34:15.753Z,8.79
2022-10-23T02:36:43.192Z,8.80
2022-10-23T02:39:10.419Z,8.89
2022-10-23T02:41:44.772Z,8.80
2022-10-23T02:44:33.755Z,8.85
2022-10-23T02:47:21.784Z,8.86
2022-10-23T02:50:33.472Z,8.91
2022-10-23T02:53:32.863Z,8.99
2022-10-23T02:56:13.447Z,8.98
2022-10-23T02:58:48.328Z,9.04
2022-10-23T03:01:20.442Z,9.08
2022-10-23T03:03:56.123Z,9.07
2022-10-23T03:06:24.068Z,9.11
2022-10-23T03:09:00.329Z,9.08
2022-10-23T03:11:27.249Z,9.07
2022-10-23T03:13:54.495Z,9.09
2022-10-23T03:16:21.548Z,9.11
2022-10-23T03:18:48.939Z,9.22
2022-10-23T03:21:15.879Z,9.22
2022-10-23T03:23:42.868Z,9.30
2022-10-23T03:26:09.901Z,9.32
2022-10-23T03:28:36.972Z,9.33
2022-10-23T03:31:05.309Z,9.31
2022-10-23T03:33:33.547Z,9.34
2022-10-23T03:36:00.480Z,9.32
2022-10-23T03:38:27.587Z,9.45
2022-10-23T03:40:54.653Z,9.51
2022-10-23T03:43:21.843Z,9.50
2022-10-23T03:45:48.897Z,9.53
2022-10-23T03:48:15.902Z,9.53
2022-10-23T03:50:42.811Z,9.60
2022-10-23T03:53:10.064Z,9.65
2022-10-23T03:55:37.089Z,9.71
2022-10-23T03:58:04.033Z,9.67
2022-10-23T04:00:31.113Z,9.75
2022-10-23T04:02:58.179Z,9.80
2022-10-23T04:05:25.166Z,9.87
2022-10-23T04:07:52.229Z,9.87
2022-10-23T04:10:19.179Z,9.90
2022-10-23T04:12:46.443Z,10.02
2022-10-23T04:15:13.485Z,10.01
2022-10-23T04:17:40.562Z,10.08
2022-10-23T04:20:07.669Z,10.11
2022-10-23T04:22:34.769Z,10.11
2022-10-23T04:25:01.741Z,10.19
2022-10-23T04:27:29.159Z,10.17
2022-10-23T04:29:58.338Z,10.16
2022-10-23T04:32:28.523Z,10.22
2022-10-23T04:34:55.844Z,10.11
2022-10-23T04:37:23.542Z,10.08
2022-10-23T04:39:50.743Z,10.06
2022-10-23T04:42:18.162Z,10.01
2022-10-23T04:44:45.322Z,9.95
2022-10-23T04:47:12.262Z,9.95
2022-10-23T04:49:39.633Z,9.91
2022-10-23T04:52:06.976Z,9.92
2022-10-23T04:54:38.187Z,9.94
2022-10-23T04:57:05.595Z,9.93
2022-10-23T04:59:32.597Z,9.91
2022-10-23T05:01:59.745Z,10.06
2022-10-23T05:04:26.772Z,10.13
2022-10-23T05:06:53.951Z,10.18
2022-10-23T05:09:22.586Z,10.27
2022-10-23T05:11:49.721Z,10.51
2022-10-23T05:14:20.641Z,10.78
2022-10-23T05:17:00.145Z,11.13
2022-10-23T05:19:36.661Z,11.44
2022-10-23T05:22:06.151Z,11.79
2022-10-23T05:24:33.098Z,12.10
2022-10-23T05:27:00.161Z,12.37
2022-10-23T05:29:27.258Z,12.73
2022-10-23T05:31:59.194Z,13.05
2022-10-23T05:34:28.568Z,13.34
2022-10-23T05:37:14.526Z,13.65
2022-10-23T05:39:41.950Z,13.97
2022-10-23T05:42:09.058Z,14.23
2022-10-23T05:44:37.103Z,14.41
2022-10-23T05:47:04.199Z,14.55
2022-10-23T05:49:31.082Z,14.68
2022-10-23T05:51:58.139Z,14.85
2022-10-23T05:54:25.215Z,14.93
2022-10-23T05:56:52.172Z,15.02
2022-10-23T05:59:22.080Z,15.09
2022-10-23T06:01:50.185Z,15.15
2022-10-23T06:04:17.375Z,15.19
2022-10-23T06:06:46.885Z,15.24
2022-10-23T06:09:14.982Z,15.27
2022-10-23T06:11:42.707Z,15.31
2022-10-23T06:14:09.683Z,15.42
2022-10-23T06:16:36.842Z,15.49
2022-10-23T06:19:03.890Z,15.50
2022-10-23T06:21:30.839Z,15.54
2022-10-23T06:23:58.418Z,15.52
2022-10-23T06:26:25.572Z,15.58
2022-10-23T06:28:52.787Z,15.71
2022-10-23T06:31:20.585Z,15.72
2022-10-23T06:33:47.320Z,15.86
2022-10-23T06:36:14.805Z,16.04
2022-10-23T06:38:41.818Z,16.22
2022-10-23T06:41:14.457Z,16.48
2022-10-23T06:43:41.755Z,16.66
2022-10-23T06:46:09.096Z,16.71
2022-10-23T06:48:36.267Z,16.72
2022-10-23T06:51:08.324Z,16.85
2022-10-23T06:53:36.167Z,16.98
2022-10-23T06:56:03.935Z,17.10
2022-10-23T06:58:31.782Z,17.19
2022-10-23T07:01:02.821Z,17.18
2022-10-23T07:03:30.751Z,17.32
2022-10-23T07:06:00.185Z,17.51
2022-10-23T07:08:27.121Z,17.64
2022-10-23T07:10:54.407Z,17.66
2022-10-23T07:13:22.744Z,17.66
2022-10-23T07:15:49.621Z,17.74
2022-10-23T07:18:17.428Z,17.86
2022-10-23T07:20:44.304Z,17.97
2022-10-23T07:23:12.363Z,18.06
2022-10-23T07:25:39.428Z,18.10
2022-10-23T07:28:06.340Z,18.21
2022-10-23T07:30:33.892Z,18.31
2022-10-23T07:33:00.867Z,18.19
2022-10-23T07:35:33.002Z,18.15
2022-10-23T07:38:02.766Z,18.27
2022-10-23T07:40:29.814Z,18.43
2022-10-23T07:42:57.229Z,18.47
2022-10-23T07:45:24.159Z,18.40
2022-10-23T07:47:52.412Z,18.41
2022-10-23T07:50:19.879Z,18.39
2022-10-23T07:52:47.159Z,18.45
2022-10-23T07:55:14.729Z,18.47
2022-10-23T07:57:41.652Z,18.62
2022-10-23T08:00:10.265Z,18.80
2022-10-23T08:02:37.919Z,18.85
2022-10-23T08:05:05.007Z,18.79
2022-10-23T08:07:32.254Z,18.74
2022-10-23T08:09:59.887Z,18.82
2022-10-23T08:12:27.242Z,18.86
2022-10-23T08:14:54.499Z,18.85
2022-10-23T08:17:23.977Z,18.69
2022-10-23T08:19:53.414Z,18.84
2022-10-23T08:22:20.422Z,18.95
2022-10-23T08:24:47.405Z,18.97
2022-10-23T08:27:14.328Z,19.13
2022-10-23T08:29:41.480Z,19.12
2022-10-23T08:32:08.375Z,19.15
2022-10-23T08:34:38.048Z,19.23
2022-10-23T08:37:05.344Z,19.24
2022-10-23T08:39:32.387Z,19.28
2022-10-23T08:41:59.478Z,19.13
2022-10-23T08:44:52.916Z,19.18
2022-10-23T08:47:39.336Z,19.17
2022-10-23T08:50:23.301Z,19.08
2022-10-23T08:53:05.671Z,19.11
2022-10-23T08:55:41.129Z,19.16
2022-10-23T08:58:16.881Z,19.18
2022-10-23T09:00:46.925Z,19.24
2022-10-23T09:03:14.511Z,19.27
2022-10-23T09:06:07.839Z,19.32
2022-10-23T09:08:48.536Z,19.36
2022-10-23T09:11:21.254Z,19.52
2022-10-23T09:13:50.950Z,19.66
2022-10-23T09:16:26.726Z,19.68
2022-10-23T09:18:55.133Z,19.70
2022-10-23T09:21:27.250Z,19.57
2022-10-23T09:23:54.211Z,19.51
2022-10-23T09:26:22.188Z,19.67
2022-10-23T09:28:52.521Z,19.70
2022-10-23T09:31:19.888Z,19.65
2022-10-23T09:34:01.499Z,19.63
2022-10-23T09:36:29.732Z,19.72
2022-10-23T09:38:59.348Z,19.72
2022-10-23T09:41:40.584Z,19.71
2022-10-23T09:44:21.584Z,19.74
2022-10-23T09:47:00.054Z,19.67
2022-10-23T09:49:34.466Z,19.75
2022-10-23T09:52:08.097Z,19.74
2022-10-23T09:54:40.650Z,19.70
2022-10-23T09:57:29.416Z,19.75
2022-10-23T10:00:02.405Z,19.83
2022-10-23T10:02:34.804Z,20.03
2022-10-23T10:05:23.985Z,20.23
2022-10-23T10:08:06.222Z,20.30
2022-10-23T10:10:42.577Z,20.34
2022-10-23T10:13:35.570Z,20.27
2022-10-23T10:16:21.053Z,20.26
2022-10-23T10:18:59.091Z,20.19
2022-10-23T10:21:46.664Z,20.09
2022-10-23T10:24:25.595Z,20.24
2022-10-23T10:27:21.038Z,20.47
2022-10-23T10:30:06.949Z,20.63
2022-10-23T10:32:52.659Z,20.69
2022-10-23T10:35:23.397Z,20.71
2022-10-23T10:38:10.558Z,20.80
2022-10-23T10:40:50.503Z,20.84
2022-10-23T10:43:49.455Z,20.90
2022-10-23T10:46:33.777Z,20.93
2022-10-23T10:49:13.143Z,20.74
2022-10-23T10:52:11.572Z,20.65
2022-10-23T10:54:57.515Z,20.63
2022-10-23T10:58:00.273Z,20.73
2022-10-23T11:00:30.316Z,20.83
2022-10-23T11:03:39.853Z,20.96
2022-10-23T11:06:15.438Z,21.02
2022-10-23T11:08:56.339Z,20.99
2022-10-23T11:11:37.825Z,21.12
2022-10-23T11:14:05.245Z,21.11
2022-10-23T11:16:40.399Z,21.19
2022-10-23T11:19:14.219Z,21.13
2022-10-23T11:22:33.987Z,20.85
2022-10-23T11:25:25.218Z,20.87
2022-10-23T11:28:17.419Z,20.70
2022-10-23T11:31:30.022Z,20.78
2022-10-23T11:34:06.278Z,20.92
2022-10-23T11:36:44.797Z,20.99
2022-10-23T11:39:21.076Z,21.03
2022-10-23T11:42:16.122Z,21.03
2022-10-23T11:44:43.386Z,21.10
2022-10-23T11:47:36.422Z,21.15
2022-10-23T11:50:09.016Z,21.20
2022-10-23T11:52:50.321Z,21.21
2022-10-23T11:55:26.673Z,21.24
2022-10-23T11:58:05.563Z,21.22
2022-10-23T12:00:35.480Z,21.17
2022-10-23T12:03:03.148Z,21.17
2022-10-23T12:05:38.068Z,21.12
2022-10-23T12:08:17.425Z,21.08
2022-10-23T12:10:47.123Z,20.92
2022-10-23T12:13:39.099Z,20.98
2022-10-23T12:16:10.651Z,21.05
2022-10-23T12:18:54.523Z,20.95
2022-10-23T12:21:28.674Z,20.84
2022-10-23T12:24:25.960Z,20.74
2022-10-23T12:27:00.778Z,20.76
2022-10-23T12:29:52.564Z,20.83
2022-10-23T12:32:25.684Z,20.82
2022-10-23T12:35:24.702Z,20.81
2022-10-23T12:38:08.258Z,20.82
2022-10-23T12:40:35.723Z,20.74
2022-10-23T12:43:02.664Z,20.71
2022-10-23T12:45:37.253Z,20.73
2022-10-23T12:48:04.467Z,20.68
2022-10-23T12:50:35.630Z,20.66
2022-10-23T12:53:06.937Z,20.50
2022-10-23T12:58:33.400Z,20.44
2022-10-23T13:01:04.015Z,20.36
2022-10-23T13:03:33.492Z,20.28
2022-10-23T13:06:04.882Z,20.33
2022-10-23T13:08:42.257Z,20.29
2022-10-23T13:11:17.060Z,20.22
2022-10-23T13:13:44.433Z,20.19
2022-10-23T13:16:16.477Z,20.26
2022-10-23T13:18:43.883Z,20.27
2022-10-23T13:21:31.215Z,20.26
2022-10-23T13:23:58.605Z,20.24
2022-10-23T13:26:45.413Z,20.17
2022-10-23T13:29:23.253Z,20.14
2022-10-23T13:31:50.657Z,20.16
2022-10-23T13:34:27.354Z,20.14
2022-10-23T13:37:22.044Z,20.15
2022-10-23T13:40:05.155Z,20.10
2022-10-23T13:42:32.377Z,20.01
2022-10-23T13:44:59.880Z,19.97
2022-10-23T13:47:27.870Z,20.00
2022-10-23T13:49:54.930Z,19.94
2022-10-23T13:52:24.005Z,19.89
2022-10-23T13:54:52.945Z,19.89
2022-10-23T13:57:20.218Z,19.81
2022-10-23T13:59:57.834Z,19.84
2022-10-23T14:02:52.385Z,19.79
2022-10-23T14:05:26.343Z,19.76
2022-10-23T14:07:58.963Z,19.74
2022-10-23T14:10:31.039Z,19.71
2022-10-23T14:12:58.625Z,19.63
2022-10-23T14:15:26.550Z,19.58
2022-10-23T14:17:59.083Z,19.50
2022-10-23T14:20:28.467Z,19.49
2022-10-23T14:23:05.858Z,19.42
2022-10-23T14:25:32.985Z,19.35
2022-10-23T14:28:00.990Z,19.30
2022-10-23T14:30:28.280Z,19.29
2022-10-23T14:32:55.480Z,19.26
2022-10-23T14:35:36.738Z,19.21
2022-10-23T14:38:04.048Z,19.19
2022-10-23T14:40:31.322Z,19.09
2022-10-23T14:42:58.632Z,19.04
2022-10-23T14:45:39.507Z,19.00
2022-10-23T14:48:06.932Z,18.97
2022-10-23T14:50:36.608Z,18.90
2022-10-23T14:53:04.508Z,18.82
2022-10-23T14:55:31.556Z,18.73
2022-10-23T14:57:58.778Z,18.60
2022-10-23T15:00:25.727Z,18.49
2022-10-23T15:02:52.816Z,18.31
2022-10-23T15:05:20.346Z,18.14
2022-10-23T15:07:47.514Z,18.01
2022-10-23T15:10:15.014Z,17.86
2022-10-23T15:12:42.452Z,17.72
2022-10-23T15:15:10.117Z,17.65
2022-10-23T15:17:39.277Z,17.40
2022-10-23T15:20:08.130Z,17.28
2022-10-23T15:22:35.158Z,17.10
2022-10-23T15:25:02.572Z,16.94
2022-10-23T15:27:29.453Z,16.76
2022-10-23T15:29:56.431Z,16.62
2022-10-23T15:32:23.716Z,16.42
2022-10-23T15:34:52.429Z,16.22
2022-10-23T15:37:19.519Z,16.09
2022-10-23T15:39:46.621Z,15.98
2022-10-23T15:42:13.952Z,15.78
2022-10-23T15:44:41.619Z,15.64
2022-10-23T15:47:08.927Z,15.54
2022-10-23T15:49:37.108Z,15.34
2022-10-23T15:52:05.123Z,15.28
2022-10-23T15:54:33.090Z,15.18
2022-10-23T15:57:00.565Z,15.04
2022-10-23T15:59:28.399Z,14.89
2022-10-23T16:01:55.963Z,14.77
2022-10-23T16:04:23.580Z,14.63
2022-10-23T16:06:50.730Z,14.50
2022-10-23T16:09:17.832Z,14.45
2022-10-23T16:11:45.203Z,14.40
2022-10-23T16:14:14.500Z,14.29
2022-10-23T16:16:41.835Z,14.23
2022-10-23T16:19:10.867Z,14.17
2022-10-23T16:21:38.099Z,14.09
2022-10-23T16:24:07.926Z,14.01
2022-10-23T16:26:36.089Z,13.94
2022-10-23T16:29:06.154Z,13.84
2022-10-23T16:31:33.522Z,13.75
2022-10-23T16:34:02.335Z,13.66
2022-10-23T16:36:30.000Z,13.57
2022-10-23T16:38:58.370Z,13.48
2022-10-23T16:41:25.636Z,13.37
2022-10-23T16:43:52.875Z,13.30
2022-10-23T16:46:22.011Z,13.24
2022-10-23T16:48:51.085Z,13.17
2022-10-23T16:51:21.072Z,13.15
2022-10-23T16:53:48.505Z,13.07
2022-10-23T16:56:18.801Z,12.98
2022-10-23T16:58:45.837Z,12.94
2022-10-23T17:01:19.121Z,12.88
2022-10-23T17:03:50.587Z,12.81
2022-10-23T17:06:20.427Z,12.73
2022-10-23T17:08:48.386Z,12.67
2022-10-23T17:11:25.521Z,12.65
2022-10-23T17:13:59.324Z,12.53
2022-10-23T17:16:34.982Z,12.47
2022-10-23T17:19:03.138Z,12.42
2022-10-23T17:21:36.826Z,12.40
2022-10-23T17:24:05.543Z,12.35
2022-10-23T17:26:34.644Z,12.30
2022-10-23T17:29:03.370Z,12.21
2022-10-23T17:31:34.316Z,12.23
2022-10-23T17:34:04.547Z,12.06
2022-10-23T17:36:34.387Z,11.99
2022-10-23T17:39:02.051Z,11.97
2022-10-23T17:41:29.323Z,11.96
2022-10-23T17:43:58.655Z,11.92
2022-10-23T17:46:26.979Z,11.90
2022-10-23T17:48:56.800Z,11.87
2022-10-23T17:51:26.290Z,11.77
2022-10-23T17:53:56.442Z,11.77
2022-10-23T17:59:26.333Z,11.71
2022-10-23T18:02:04.776Z,11.60
2022-10-23T18:04:34.567Z,11.58
2022-10-23T18:07:07.441Z,11.53
2022-10-23T18:09:46.802Z,11.43
2022-10-23T18:15:35.368Z,11.30
2022-10-23T18:18:10.878Z,11.30
2022-10-23T18:20:45.646Z,11.23
2022-10-23T18:23:12.700Z,11.17
2022-10-23T18:25:43.566Z,11.18
2022-10-23T18:28:10.650Z,11.19
2022-10-23T18:30:40.802Z,11.06
2022-10-23T18:33:07.816Z,11.05
2022-10-23T18:35:38.329Z,11.04
2022-10-23T18:38:05.644Z,11.00
2022-10-23T18:40:34.068Z,11.03
2022-10-23T18:43:01.141Z,11.04
2022-10-23T18:45:32.090Z,11.04
2022-10-23T18:47:59.176Z,11.02
2022-10-23T18:50:26.705Z,11.01
2022-10-23T18:52:54.123Z,10.92
2022-10-23T18:55:21.494Z,10.88
2022-10-23T18:57:48.394Z,10.77
2022-10-23T19:00:15.910Z,10.76
2022-10-23T19:02:43.133Z,10.77
2022-10-23T19:05:10.186Z,10.74
2022-10-23T19:07:37.168Z,10.69
2022-10-23T19:10:04.614Z,10.69
2022-10-23T19:12:31.651Z,10.67
2022-10-23T19:15:02.055Z,10.66
2022-10-23T19:17:32.403Z,10.65
2022-10-23T19:20:07.811Z,10.64
2022-10-23T19:22:36.461Z,10.57
2022-10-23T19:25:28.112Z,10.54
2022-10-23T19:27:57.152Z,10.57
2022-10-23T19:30:24.932Z,10.55
2022-10-23T19:32:52.685Z,10.51
2022-10-23T19:35:21.312Z,10.49
2022-10-23T19:40:35.085Z,9.96
2022-10-23T19:44:21.845Z,10.24
2022-10-23T19:47:13.743Z,10.12
2022-10-23T19:50:07.984Z,10.11
2022-10-23T19:52:41.889Z,9.99
2022-10-23T19:55:13.217Z,10.04
2022-10-23T19:57:41.727Z,10.04
2022-10-23T20:00:09.707Z,9.97
2022-10-23T20:05:06.664Z,9.90
2022-10-23T20:07:35.571Z,9.88
2022-10-23T20:10:03.632Z,9.86
2022-10-23T20:12:37.950Z,9.87
2022-10-23T20:15:05.476Z,9.83
2022-10-23T20:17:32.845Z,9.79
2022-10-23T20:20:03.185Z,9.79
2022-10-23T20:22:30.180Z,9.76
2022-10-23T20:24:59.062Z,9.68
2022-10-23T20:27:29.958Z,9.61
2022-10-23T20:29:57.165Z,9.60
2022-10-23T20:32:33.466Z,9.58
2022-10-23T20:35:00.929Z,9.54
2022-10-23T20:37:27.991Z,9.53
2022-10-23T20:39:56.077Z,9.47
2022-10-23T20:43:43.742Z,9.44
2022-10-23T20:49:32.764Z,9.31
2022-10-23T20:57:04.396Z,9.13
2022-10-23T21:06:31.531Z,9.00
2022-10-23T21:09:29.745Z,8.90
2022-10-23T21:12:48.692Z,8.89
2022-10-23T21:15:58.100Z,8.87
2022-10-23T21:18:51.205Z,8.87
2022-10-23T21:21:35.081Z,8.87
2022-10-23T21:24:31.662Z,8.85
2022-10-23T21:27:59.970Z,8.77
2022-10-23T21:33:36.665Z,8.68
2022-10-23T21:48:42.686Z,8.49
2022-10-23T21:54:54.404Z,8.38
2022-10-23T21:57:55.203Z,8.41
2022-10-23T22:00:42.942Z,8.39
2022-10-23T22:04:15.418Z,8.37
2022-10-23T22:06:52.832Z,8.38
2022-10-23T22:10:05.544Z,8.36
2022-10-23T22:22:00.962Z,8.27
2022-10-23T22:24:40.248Z,8.25
2022-10-23T22:27:08.887Z,8.22
2022-10-23T22:29:45.543Z,8.25
2022-10-23T22:32:16.489Z,8.23
2022-10-23T22:34:53.079Z,8.22
2022-10-23T22:37:27.817Z,8.20
2022-10-23T22:40:36.335Z,8.16
2022-10-23T22:43:12.705Z,8.12
2022-10-23T22:46:30.548Z,8.12
2022-10-23T22:49:31.706Z,8.13
2022-10-23T22:55:22.306Z,7.98
2022-10-23T22:58:06.888Z,7.93
2022-10-23T23:03:32.645Z,7.93
2022-10-23T23:06:45.039Z,7.92
2022-10-23T23:09:20.445Z,7.90
2022-10-23T23:12:23.325Z,7.89
2022-10-23T23:15:03.292Z,7.88
2022-10-23T23:17:34.341Z,7.85
2022-10-23T23:23:18.925Z,7.81
2022-10-23T23:29:00.191Z,7.77
2022-10-23T23:31:28.770Z,7.72
2022-10-23T23:34:00.139Z,7.74
2022-10-23T23:36:30.177Z,7.76
2022-10-23T23:38:59.351Z,7.65
2022-10-23T23:41:52.874Z,7.62
2022-10-23T23:44:28.303Z,7.61
2022-10-23T23:52:28.094Z,7.53
2022-10-23T23:55:18.299Z,7.52
2022-10-23T23:57:54.974Z,7.49
